^^
Your Local Weather - Clay, NY Station Historical Data
Daily Summary for October 4, 2017 Units:  English    Metric   Both
« Previous Day
Next Day »
Daily Weekly Monthly Yearly Custom
  High: Low: Average:
Temperature: 83.2 °F 50.6 °F 65.9 °F
Dew Point: 65.4 °F 45.7 °F 55.4 °F
Humidity: 91% 45% 71%
Wind Speed: 6.0mph 0.0mph 1.8mph
Wind Gust: 13.0mph - -
Wind- - SSW
Pressure: 30.38 in 30.01 in -
Precipitation: 0.37 in    
Historical Graphs
 
 
Tabular Data for October 4, 2017
Time Temperature Dew Point Pressure Wind Wind Speed Wind Gust Humidity Rainfall Rate (Hourly) solar
00:04 61.4 °F 46.0 °F 30.38 in SSW 2.0 mph 4.0 mph 57% 0.00 in 0 W/m2
00:10 61.3 °F 45.9 °F 30.38 in SSE 1.0 mph 2.0 mph 57% 0.00 in 0 W/m2
00:16 61.0 °F 45.7 °F 30.38 in South 2.0 mph 4.0 mph 57% 0.00 in 0 W/m2
00:22 60.7 °F 45.8 °F 30.37 in South 2.0 mph 2.0 mph 58% 0.00 in 0 W/m2
00:28 60.5 °F 46.1 °F 30.37 in South 1.0 mph 2.0 mph 59% 0.00 in 0 W/m2
00:34 60.1 °F 46.2 °F 30.37 in South 1.0 mph 5.0 mph 60% 0.00 in 0 W/m2
00:40 59.8 °F 45.9 °F 30.37 in SSE 1.0 mph 1.0 mph 60% 0.00 in 0 W/m2
00:46 59.1 °F 46.1 °F 30.37 in Calm   1.0 mph 62% 0.00 in 0 W/m2
00:58 58.7 °F 46.1 °F 30.37 in SSE 1.0 mph 1.0 mph 63% 0.00 in 0 W/m2
01:04 59.1 °F 46.1 °F 30.37 in South 1.0 mph 4.0 mph 62% 0.00 in 0 W/m2
01:10 59.6 °F 46.6 °F 30.36 in South 1.0 mph 1.0 mph 62% 0.00 in 0 W/m2
01:16 59.8 °F 46.3 °F 30.36 in SSW 1.0 mph 2.0 mph 61% 0.00 in 0 W/m2
01:22 60.2 °F 46.7 °F 30.36 in South 2.0 mph 5.0 mph 61% 0.00 in 0 W/m2
01:28 60.5 °F 46.5 °F 30.36 in SSW 2.0 mph 5.0 mph 60% 0.00 in 0 W/m2
01:34 60.3 °F 46.8 °F 30.36 in South 1.0 mph 4.0 mph 61% 0.00 in 0 W/m2
01:40 59.9 °F 46.8 °F 30.36 in SSE 1.0 mph 1.0 mph 62% 0.00 in 0 W/m2
01:46 59.5 °F 46.9 °F 30.36 in SSE 1.0 mph 2.0 mph 63% 0.00 in 0 W/m2
01:52 59.1 °F 46.9 °F 30.36 in SSW 1.0 mph 2.0 mph 64% 0.00 in 0 W/m2
01:58 59.1 °F 46.9 °F 30.36 in SSE 2.0 mph 3.0 mph 64% 0.00 in 0 W/m2
02:04 59.9 °F 47.3 °F 30.36 in SW 2.0 mph 4.0 mph 63% 0.00 in 0 W/m2
02:10 60.5 °F 47.4 °F 30.36 in WSW 3.0 mph 4.0 mph 62% 0.00 in 0 W/m2
02:16 60.2 °F 47.1 °F 30.35 in SSW 2.0 mph 4.0 mph 62% 0.00 in 0 W/m2
02:22 59.8 °F 47.2 °F 30.35 in SSW 2.0 mph 3.0 mph 63% 0.00 in 0 W/m2
02:28 59.7 °F 47.1 °F 30.35 in South 1.0 mph 3.0 mph 63% 0.00 in 0 W/m2
02:34 59.1 °F 46.9 °F 30.34 in South 1.0 mph 1.0 mph 64% 0.00 in 0 W/m2
02:40 58.7 °F 47.0 °F 30.34 in South 1.0 mph 1.0 mph 65% 0.00 in 0 W/m2
02:46 57.9 °F 47.0 °F 30.34 in SSE 1.0 mph 2.0 mph 67% 0.00 in 0 W/m2
02:52 57.4 °F 46.9 °F 30.34 in SSE 1.0 mph 2.0 mph 68% 0.00 in 0 W/m2
02:58 57.0 °F 46.9 °F 30.33 in SSE 1.0 mph 2.0 mph 69% 0.00 in 0 W/m2
03:04 57.0 °F 46.9 °F 30.33 in SSE 1.0 mph 1.0 mph 69% 0.00 in 0 W/m2
03:10 56.8 °F 47.1 °F 30.33 in Calm     70% 0.00 in 0 W/m2
03:16 56.7 °F 47.0 °F 30.33 in Calm   1.0 mph 70% 0.00 in 0 W/m2
03:22 56.3 °F 47.0 °F 30.33 in Calm     71% 0.00 in 0 W/m2
03:28 55.7 °F 46.8 °F 30.32 in Calm     72% 0.00 in 0 W/m2
03:34 55.2 °F 47.1 °F 30.32 in Calm     74% 0.00 in 0 W/m2
03:40 54.8 °F 47.0 °F 30.32 in Calm     75% 0.00 in 0 W/m2
03:46 54.5 °F 47.4 °F 30.32 in Calm     77% 0.00 in 0 W/m2
03:52 53.8 °F 47.4 °F 30.32 in Calm     79% 0.00 in 0 W/m2
03:58 53.4 °F 47.4 °F 30.31 in Calm     80% 0.00 in 0 W/m2
04:04 53.2 °F 47.8 °F 30.31 in Calm     82% 0.00 in 0 W/m2
04:10 52.9 °F 47.9 °F 30.31 in Calm     83% 0.00 in 0 W/m2
04:16 52.6 °F 47.9 °F 30.31 in Calm     84% 0.00 in 0 W/m2
04:28 51.8 °F 47.1 °F 30.31 in Calm     84% 0.00 in 0 W/m2
04:34 51.6 °F 47.2 °F 30.31 in Calm     85% 0.00 in 0 W/m2
04:40 51.5 °F 47.1 °F 30.31 in Calm     85% 0.00 in 0 W/m2
04:46 51.4 °F 47.4 °F 30.30 in Calm     86% 0.00 in 0 W/m2
04:52 51.4 °F 47.4 °F 30.30 in Calm     86% 0.00 in 0 W/m2
04:58 51.4 °F 47.4 °F 30.30 in Calm     86% 0.00 in 0 W/m2
05:04 51.6 °F 47.9 °F 30.30 in Calm     87% 0.00 in 0 W/m2
05:10 51.6 °F 48.2 °F 30.30 in Calm     88% 0.00 in 0 W/m2
05:16 51.6 °F 48.2 °F 30.30 in Calm     88% 0.00 in 0 W/m2
05:22 51.4 °F 48.0 °F 30.30 in Calm     88% 0.00 in 0 W/m2
05:28 51.2 °F 47.8 °F 30.30 in Calm     88% 0.00 in 0 W/m2
05:34 51.1 °F 47.7 °F 30.30 in Calm     88% 0.00 in 0 W/m2
05:40 51.0 °F 47.6 °F 30.30 in Calm     88% 0.00 in 0 W/m2
05:46 50.9 °F 47.5 °F 30.29 in Calm     88% 0.00 in 0 W/m2
05:52 50.7 °F 47.3 °F 30.29 in Calm     88% 0.00 in 0 W/m2
05:58 50.6 °F 47.5 °F 30.29 in Calm     89% 0.00 in 0 W/m2
06:04 50.6 °F 47.5 °F 30.29 in Calm     89% 0.00 in 0 W/m2
06:10 50.8 °F 47.7 °F 30.29 in Calm     89% 0.00 in 0 W/m2
06:16 50.9 °F 47.8 °F 30.29 in Calm     89% 0.00 in 0 W/m2
06:22 50.9 °F 47.8 °F 30.29 in Calm     89% 0.00 in 0 W/m2
06:28 50.9 °F 47.8 °F 30.29 in Calm     89% 0.00 in 0 W/m2
06:34 51.0 °F 47.9 °F 30.29 in Calm     89% 0.00 in 0 W/m2
06:40 50.9 °F 47.8 °F 30.29 in Calm     89% 0.00 in 0 W/m2
06:46 50.9 °F 47.8 °F 30.28 in Calm   1.0 mph 89% 0.00 in 0 W/m2
06:52 51.0 °F 47.6 °F 30.28 in SSE 1.0 mph 2.0 mph 88% 0.00 in 0 W/m2
06:58 51.0 °F 47.6 °F 30.29 in ENE 1.0 mph 2.0 mph 88% 0.00 in 0 W/m2
07:04 51.2 °F 47.8 °F 30.29 in Calm   1.0 mph 88% 0.00 in 0 W/m2
07:10 50.8 °F 47.4 °F 30.29 in Calm     88% 0.00 in 5 W/m2
07:16 51.0 °F 47.6 °F 30.29 in Calm   2.0 mph 88% 0.00 in 9 W/m2
07:22 50.9 °F 47.5 °F 30.28 in Calm     88% 0.00 in 14 W/m2
07:28 50.9 °F 47.8 °F 30.28 in Calm     89% 0.00 in 18 W/m2
07:36 51.1 °F 48.0 °F 30.28 in Calm   1.0 mph 89% 0.00 in 25 W/m2
07:42 51.1 °F 48.0 °F 30.28 in Calm     89% 0.00 in 26 W/m2
07:54 51.7 °F 48.3 °F 30.28 in Calm     88% 0.00 in 32 W/m2
08:00 52.1 °F 48.7 °F 30.28 in Calm     88% 0.00 in 32 W/m2
08:06 52.4 °F 48.9 °F 30.28 in Calm     88% 0.00 in 26 W/m2
08:12 52.7 °F 48.9 °F 30.28 in Calm   1.0 mph 87% 0.00 in 65 W/m2
08:18 53.3 °F 49.5 °F 30.28 in Calm   1.0 mph 87% 0.00 in 47 W/m2
08:24 54.1 °F 50.0 °F 30.27 in Calm   2.0 mph 86% 0.00 in 160 W/m2
08:30 55.4 °F 50.6 °F 30.27 in East 1.0 mph 1.0 mph 84% 0.00 in 111 W/m2
08:36 56.8 °F 50.7 °F 30.27 in SE 1.0 mph 2.0 mph 80% 0.00 in 153 W/m2
08:42 57.9 °F 51.1 °F 30.26 in SE 1.0 mph 1.0 mph 78% 0.00 in 95 W/m2
08:48 58.9 °F 51.0 °F 30.26 in SSE 1.0 mph 2.0 mph 75% 0.00 in 142 W/m2
08:54 59.4 °F 51.1 °F 30.26 in SSE 1.0 mph 3.0 mph 74% 0.00 in 179 W/m2
09:00 59.8 °F 51.1 °F 30.26 in SSE 2.0 mph 3.0 mph 73% 0.00 in 107 W/m2
09:06 60.3 °F 51.6 °F 30.26 in SSE 3.0 mph 4.0 mph 73% 0.00 in 79 W/m2
09:12 61.0 °F 51.5 °F 30.26 in SE 2.0 mph 3.0 mph 71% 0.00 in 151 W/m2
09:18 61.6 °F 52.1 °F 30.26 in SE 1.0 mph 3.0 mph 71% 0.00 in 206 W/m2
09:24 62.3 °F 52.4 °F 30.25 in SSE 1.0 mph 2.0 mph 70% 0.00 in 183 W/m2
09:30 62.8 °F 52.1 °F 30.25 in ENE 1.0 mph 2.0 mph 68% 0.00 in 241 W/m2
09:36 63.3 °F 52.2 °F 30.25 in SSE 2.0 mph 3.0 mph 67% 0.00 in 417 W/m2
09:42 64.2 °F 52.6 °F 30.25 in SSE 3.0 mph 3.0 mph 66% 0.00 in 404 W/m2
09:48 65.2 °F 53.6 °F 30.24 in SE 2.0 mph 4.0 mph 66% 0.00 in 425 W/m2
09:54 66.0 °F 53.5 °F 30.24 in SE 2.0 mph 3.0 mph 64% 0.00 in 431 W/m2
10:00 66.2 °F 54.5 °F 30.24 in ENE 2.0 mph 2.0 mph 66% 0.00 in 452 W/m2
10:06 66.9 °F 53.9 °F 30.24 in SSE 2.0 mph 3.0 mph 63% 0.00 in 462 W/m2
10:18 68.6 °F 52.8 °F 30.24 in ESE 1.0 mph 2.0 mph 57% 0.00 in 564 W/m2
10:24 68.5 °F 53.6 °F 30.24 in East 1.0 mph 3.0 mph 59% 0.00 in 287 W/m2
10:30 68.9 °F 54.0 °F 30.24 in East 1.0 mph 1.0 mph 59% 0.00 in 557 W/m2
10:36 70.6 °F 54.1 °F 30.23 in Calm   2.0 mph 56% 0.00 in 657 W/m2
10:42 70.6 °F 54.1 °F 30.23 in South 1.0 mph 1.0 mph 56% 0.00 in 234 W/m2
10:48 70.8 °F 54.8 °F 30.23 in SSE 1.0 mph 2.0 mph 57% 0.00 in 621 W/m2
10:54 72.1 °F 56.0 °F 30.23 in SSE 1.0 mph 2.0 mph 57% 0.00 in 606 W/m2
11:00 71.9 °F 55.8 °F 30.23 in SE 1.0 mph 1.0 mph 57% 0.00 in 297 W/m2
11:06 72.1 °F 55.5 °F 30.23 in SE 1.0 mph 2.0 mph 56% 0.00 in 297 W/m2
11:12 72.7 °F 56.6 °F 30.23 in Calm     57% 0.00 in 271 W/m2
11:18 73.5 °F 56.3 °F 30.22 in Calm     55% 0.00 in 334 W/m2
11:24 73.2 °F 57.5 °F 30.21 in ENE 1.0 mph 3.0 mph 58% 0.00 in 345 W/m2
11:30 73.0 °F 58.3 °F 30.21 in ENE 1.0 mph 1.0 mph 60% 0.00 in 512 W/m2
11:36 73.3 °F 58.1 °F 30.21 in NE 2.0 mph 4.0 mph 59% 0.00 in 281 W/m2
11:42 71.5 °F 58.2 °F 30.21 in ENE 3.0 mph 3.0 mph 63% 0.00 in 731 W/m2
11:48 72.2 °F 58.9 °F 30.20 in NE 3.0 mph 5.0 mph 63% 0.00 in 250 W/m2
11:54 72.9 °F 59.1 °F 30.20 in NE 3.0 mph 3.0 mph 62% 0.00 in 250 W/m2
12:00 72.5 °F 59.2 °F 30.20 in ENE 2.0 mph 3.0 mph 63% 0.00 in 385 W/m2
12:06 73.5 °F 58.8 °F 30.19 in NE 2.0 mph 3.0 mph 60% 0.00 in 271 W/m2
12:12 74.1 °F 58.9 °F 30.19 in NE 1.0 mph 2.0 mph 59% 0.00 in 819 W/m2
12:18 76.2 °F 60.3 °F 30.18 in SE 1.0 mph 4.0 mph 58% 0.00 in 837 W/m2
12:24 78.1 °F 58.5 °F 30.18 in WSW 2.0 mph 4.0 mph 51% 0.00 in 846 W/m2
12:30 77.7 °F 58.1 °F 30.17 in SW 3.0 mph 3.0 mph 51% 0.00 in 330 W/m2
12:36 78.5 °F 58.3 °F 30.17 in SSW 3.0 mph 3.0 mph 50% 0.00 in 759 W/m2
12:42 79.7 °F 58.8 °F 30.17 in SW 3.0 mph 3.0 mph 49% 0.00 in 747 W/m2
12:48 79.8 °F 59.5 °F 30.16 in SW 3.0 mph 5.0 mph 50% 0.00 in 874 W/m2
12:54 80.3 °F 60.0 °F 30.16 in SW 3.0 mph 5.0 mph 50% 0.00 in 388 W/m2
13:00 79.3 °F 59.0 °F 30.15 in SSE 2.0 mph 3.0 mph 50% 0.00 in 264 W/m2
13:06 78.5 °F 59.4 °F 30.15 in South 3.0 mph 5.0 mph 52% 0.00 in 329 W/m2
13:12 78.5 °F 59.4 °F 30.15 in SW 3.0 mph 8.0 mph 52% 0.00 in 309 W/m2
13:18 78.6 °F 59.0 °F 30.14 in WSW 3.0 mph 8.0 mph 51% 0.00 in 255 W/m2
13:26 79.4 °F 60.8 °F 30.13 in WSW 3.0 mph 4.0 mph 53% 0.00 in 464 W/m2
13:32 79.4 °F 59.1 °F 30.13 in SSW 3.0 mph 5.0 mph 50% 0.00 in 234 W/m2
13:44 78.8 °F 59.1 °F 30.12 in WSW 3.0 mph 7.0 mph 51% 0.00 in 272 W/m2
13:50 79.4 °F 60.2 °F 30.11 in WSW 2.0 mph 3.0 mph 52% 0.00 in 311 W/m2
13:56 79.5 °F 60.3 °F 30.11 in South 2.0 mph 5.0 mph 52% 0.00 in 283 W/m2
14:02 79.6 °F 59.3 °F 30.10 in WSW 3.0 mph 5.0 mph 50% 0.00 in 288 W/m2
14:08 79.3 °F 59.6 °F 30.10 in West 4.0 mph 5.0 mph 51% 0.00 in 258 W/m2
14:14 79.5 °F 59.8 °F 30.10 in SSE 5.0 mph 5.0 mph 51% 0.00 in 214 W/m2
14:20 79.4 °F 59.7 °F 30.10 in SW 3.0 mph 3.0 mph 51% 0.00 in 262 W/m2
14:26 79.8 °F 59.5 °F 30.09 in SW 3.0 mph 6.0 mph 50% 0.00 in 629 W/m2
14:32 80.1 °F 60.9 °F 30.09 in SSE 4.0 mph 5.0 mph 52% 0.00 in 439 W/m2
14:38 80.1 °F 60.3 °F 30.09 in WSW 4.0 mph 5.0 mph 51% 0.00 in 320 W/m2
14:44 80.7 °F 60.9 °F 30.09 in SSW 4.0 mph 5.0 mph 51% 0.00 in 413 W/m2
14:50 81.3 °F 59.7 °F 30.08 in SW 5.0 mph 5.0 mph 48% 0.00 in 223 W/m2
14:56 81.0 °F 60.6 °F 30.08 in SW 5.0 mph 8.0 mph 50% 0.00 in 752 W/m2
15:02 82.1 °F 59.9 °F 30.08 in SW 6.0 mph 6.0 mph 47% 0.00 in 589 W/m2
15:08 82.1 °F 59.9 °F 30.07 in WSW 6.0 mph 7.0 mph 47% 0.00 in 582 W/m2
15:14 82.4 °F 59.5 °F 30.07 in WSW 5.0 mph 6.0 mph 46% 0.00 in 485 W/m2
15:20 82.5 °F 60.2 °F 30.07 in SW 6.0 mph 11.0 mph 47% 0.00 in 512 W/m2
15:26 82.6 °F 59.7 °F 30.06 in South 5.0 mph 11.0 mph 46% 0.00 in 496 W/m2
15:32 82.5 °F 59.6 °F 30.06 in SSW 5.0 mph 7.0 mph 46% 0.00 in 483 W/m2
15:38 82.5 °F 59.6 °F 30.05 in SW 6.0 mph 10.0 mph 46% 0.00 in 476 W/m2
15:46 82.7 °F 60.4 °F 30.04 in SW 6.0 mph 11.0 mph 47% 0.00 in 462 W/m2
15:52 83.2 °F 59.6 °F 30.04 in SW 5.0 mph 5.0 mph 45% 0.00 in 490 W/m2
16:04 82.6 °F 59.7 °F 30.04 in SSW 5.0 mph 5.0 mph 46% 0.00 in 160 W/m2
16:10 81.9 °F 60.3 °F 30.04 in SSW 4.0 mph 4.0 mph 48% 0.00 in 118 W/m2
16:16 81.4 °F 60.4 °F 30.04 in WSW 4.0 mph 8.0 mph 49% 0.00 in 121 W/m2
16:22 81.3 °F 60.9 °F 30.04 in SSW 4.0 mph 4.0 mph 50% 0.00 in 462 W/m2
16:28 81.9 °F 59.7 °F 30.03 in WSW 5.0 mph 13.0 mph 47% 0.00 in 149 W/m2
16:34 82.0 °F 59.8 °F 30.02 in South 6.0 mph 11.0 mph 47% 0.00 in 149 W/m2
16:40 81.9 °F 59.7 °F 30.02 in SW 6.0 mph 10.0 mph 47% 0.00 in 135 W/m2
16:52 80.8 °F 59.9 °F 30.02 in SW 5.0 mph 6.0 mph 49% 0.00 in 62 W/m2
16:58 80.4 °F 59.5 °F 30.02 in WSW 5.0 mph 10.0 mph 49% 0.00 in 44 W/m2
17:04 80.2 °F 59.3 °F 30.02 in SW 5.0 mph 5.0 mph 49% 0.00 in 53 W/m2
17:10 80.1 °F 59.2 °F 30.02 in SW 4.0 mph 4.0 mph 49% 0.00 in 26 W/m2
17:16 79.9 °F 59.6 °F 30.02 in SSW 3.0 mph 7.0 mph 50% 0.00 in 11 W/m2
17:22 79.5 °F 60.3 °F 30.04 in WSW 3.0 mph 4.0 mph 52% 0.00 in 18 W/m2
17:28 75.8 °F 62.8 °F 30.04 in SW 4.0 mph 8.0 mph 64% 0.19 in 14 W/m2
17:34 73.3 °F 63.3 °F 30.05 in WSW 4.0 mph 4.0 mph 71% 0.07 in 12 W/m2
17:40 72.1 °F 63.7 °F 30.05 in SW 2.0 mph 3.0 mph 75% 0.04 in 14 W/m2
17:46 71.2 °F 63.6 °F 30.06 in SW 2.0 mph 4.0 mph 77% 0.04 in 9 W/m2
17:52 70.6 °F 63.8 °F 30.06 in SW 2.0 mph 3.0 mph 79% 0.04 in 5 W/m2
17:58 70.2 °F 64.1 °F 30.04 in WSW 3.0 mph 4.0 mph 81% 0.04 in 18 W/m2
18:04 69.9 °F 64.2 °F 30.04 in WSW 3.0 mph 5.0 mph 82% 0.04 in 14 W/m2
18:10 69.7 °F 64.6 °F 30.04 in WSW 3.0 mph 3.0 mph 84% 0.52 in 5 W/m2
18:16 69.4 °F 64.7 °F 30.04 in WSW 2.0 mph 3.0 mph 85% 0.10 in 5 W/m2
18:22 69.1 °F 64.7 °F 30.04 in Calm   1.0 mph 86% 0.05 in 7 W/m2
18:28 68.9 °F 64.9 °F 30.03 in Calm   1.0 mph 87% 0.05 in 5 W/m2
18:34 68.7 °F 64.7 °F 30.04 in Calm     87% 0.05 in 0 W/m2
18:40 68.6 °F 64.9 °F 30.04 in Calm     88% 0.53 in 0 W/m2
18:46 68.4 °F 65.0 °F 30.03 in Calm   1.0 mph 89% 0.13 in 0 W/m2
18:52 68.2 °F 64.8 °F 30.04 in Calm     89% 0.05 in 0 W/m2
18:58 68.2 °F 65.2 °F 30.03 in Calm     90% 0.00 in 0 W/m2
19:06 67.9 °F 64.9 °F 30.03 in Calm     90% 0.00 in 0 W/m2
19:20 67.8 °F 65.1 °F 30.03 in Calm     91% 0.00 in 0 W/m2
19:26 67.8 °F 65.1 °F 30.03 in Calm     91% 0.00 in 0 W/m2
19:32 67.8 °F 65.1 °F 30.02 in Calm     91% 0.00 in 0 W/m2
19:38 67.8 °F 65.1 °F 30.03 in Calm   1.0 mph 91% 0.00 in 0 W/m2
19:44 67.9 °F 65.2 °F 30.04 in WSW 1.0 mph 3.0 mph 91% 0.00 in 0 W/m2
19:50 67.9 °F 65.2 °F 30.04 in WSW 1.0 mph 1.0 mph 91% 0.00 in 0 W/m2
19:56 68.0 °F 65.3 °F 30.04 in WSW 1.0 mph 5.0 mph 91% 0.00 in 0 W/m2
20:02 68.1 °F 65.4 °F 30.03 in WSW 1.0 mph 1.0 mph 91% 0.00 in 0 W/m2
20:08 68.2 °F 65.2 °F 30.03 in WSW 2.0 mph 2.0 mph 90% 0.00 in 0 W/m2
20:14 68.3 °F 65.3 °F 30.03 in WSW 2.0 mph 2.0 mph 90% 0.00 in 0 W/m2
20:20 68.4 °F 65.4 °F 30.03 in WSW 1.0 mph 3.0 mph 90% 0.00 in 0 W/m2
20:26 68.4 °F 65.4 °F 30.02 in WSW 1.0 mph 3.0 mph 90% 0.00 in 0 W/m2
20:32 68.4 °F 65.0 °F 30.02 in WSW 1.0 mph 2.0 mph 89% 0.00 in 0 W/m2
20:38 68.6 °F 65.2 °F 30.02 in SW 2.0 mph 4.0 mph 89% 0.00 in 0 W/m2
20:44 68.8 °F 65.1 °F 30.02 in SW 2.0 mph 3.0 mph 88% 0.00 in 0 W/m2
20:50 69.5 °F 65.1 °F 30.02 in WSW 3.0 mph 3.0 mph 86% 0.00 in 0 W/m2
20:56 70.1 °F 65.0 °F 30.02 in WSW 3.0 mph 4.0 mph 84% 0.00 in 0 W/m2
21:08 71.1 °F 64.6 °F 30.01 in WSW 4.0 mph 5.0 mph 80% 0.00 in 0 W/m2
21:14 71.5 °F 64.6 °F 30.01 in WSW 3.0 mph 4.0 mph 79% 0.00 in 0 W/m2
21:20 71.5 °F 64.6 °F 30.01 in SW 3.0 mph 3.0 mph 79% 0.00 in 0 W/m2
21:26 71.4 °F 64.5 °F 30.01 in WSW 2.0 mph 4.0 mph 79% 0.00 in 0 W/m2
21:32 71.4 °F 64.2 °F 30.01 in WSW 2.0 mph 4.0 mph 78% 0.00 in 0 W/m2
21:38 71.6 °F 64.0 °F 30.01 in SW 3.0 mph 4.0 mph 77% 0.00 in 0 W/m2
21:44 71.9 °F 63.9 °F 30.01 in WSW 3.0 mph 5.0 mph 76% 0.00 in 0 W/m2
21:56 72.4 °F 63.6 °F 30.01 in SW 4.0 mph 4.0 mph 74% 0.00 in 0 W/m2
22:02 72.8 °F 63.6 °F 30.01 in WSW 4.0 mph 4.0 mph 73% 0.00 in 0 W/m2
22:08 73.0 °F 63.4 °F 30.01 in WSW 4.0 mph 10.0 mph 72% 0.00 in 0 W/m2
22:14 73.0 °F 63.4 °F 30.01 in SSW 2.0 mph 4.0 mph 72% 0.00 in 0 W/m2
22:20 72.8 °F 63.6 °F 30.04 in NNW 1.0 mph 2.0 mph 73% 0.00 in 0 W/m2
22:26 72.2 °F 63.4 °F 30.05 in West 4.0 mph 6.0 mph 74% 0.00 in 0 W/m2
22:32 69.5 °F 62.7 °F 30.05 in WNW 6.0 mph 6.0 mph 79% 0.00 in 0 W/m2
22:38 67.3 °F 61.6 °F 30.06 in NW 5.0 mph 7.0 mph 82% 0.09 in 0 W/m2
22:52 65.2 °F 61.2 °F 30.07 in NNW 2.0 mph 4.0 mph 87% 0.04 in 0 W/m2
22:58 64.7 °F 61.1 °F 30.07 in NW 3.0 mph 4.0 mph 88% 0.00 in 0 W/m2
23:10 63.7 °F 60.4 °F 30.08 in NW 2.0 mph 2.0 mph 89% 0.12 in 0 W/m2
23:18 63.3 °F 60.3 °F 30.09 in North 2.0 mph 3.0 mph 90% 0.40 in 0 W/m2
23:24 63.1 °F 60.1 °F 30.09 in NW 1.0 mph 4.0 mph 90% 0.25 in 0 W/m2
23:30 62.5 °F 59.5 °F 30.09 in NW 2.0 mph 4.0 mph 90% 0.50 in 0 W/m2
23:34 61.8 °F 58.8 °F 30.10 in NW 3.0 mph 4.0 mph 90% 0.52 in 0 W/m2
23:36 61.7 °F 58.7 °F 30.10 in North 3.0 mph 6.0 mph 90% 0.35 in 0 W/m2
23:42 61.2 °F 58.2 °F 30.09 in NNW 2.0 mph 3.0 mph 90% 0.16 in 0 W/m2
23:46 61.1 °F 58.5 °F 30.09 in NNW 1.0 mph 5.0 mph 91% 0.08 in 0 W/m2
23:52 60.4 °F 57.1 °F 30.09 in NW 2.0 mph 2.0 mph 89% 0.04 in 0 W/m2
23:58 59.6 °F 56.0 °F 30.10 in NW 2.0 mph 3.0 mph 88% 0.00 in 0 W/m2
Country Meadow, Clay, NY, USA
Compliments of Weather Underground - 2 mb